Overview Statistics Trail Chart Weather Telemetry Raw packets
 

This is the latest recevied weather packets stored in our database for station/object K4XP. If no packets are shown the sender has not sent any weather packets the latest 10 day(s).

<< 87 88 89 90 91 92 93 >>
Time Temp. Humidity Pressure Rain* Wind** Luminosity Snow
1787949939 28.89° C 74% 1015.5 hPa 3.05 mm - - -
1787949632 30° C 71% 1015.7 hPa 2.29 mm - - -
1787949338 30.56° C 64% 1015.8 hPa 0.25 mm - - -
1787949032 30.56° C 62% 1015.6 hPa 0 mm - - -
1787948732 30.56° C 62% 1015.3 hPa 0 mm - - -
1787948442 31.11° C 62% 1015.1 hPa 0 mm - - -
1787948136 31.11° C 62% 1015.3 hPa 0 mm - - -
1787947817 31.67° C 61% 1015.3 hPa 0 mm - - -
1787947525 32.22° C 58% 1015.5 hPa 0 mm - - -
1787947225 32.22° C 57% 1015.4 hPa 0 mm - - -
1787946917 32.22° C 57% 1015.4 hPa 0 mm - - -
1787946630 32.22° C 57% 1015.4 hPa 0 mm - - -
1787946328 32.22° C 56% 1015.6 hPa 0 mm - - -
1787946032 32.22° C 57% 1015.6 hPa 0 mm - - -
1787945731 31.67° C 59% 1015.8 hPa 0 mm - - -
1787945449 31.67° C 58% 1015.8 hPa 0 mm - - -
1787945139 31.67° C 58% 1015.8 hPa 0 mm - - -
1787944832 31.11° C 60% 1016 hPa 0 mm - - -
1787944529 31.11° C 62% 1016.1 hPa 0 mm - - -
1787943933 30.56° C 63% 1016.2 hPa 0 mm - - -
1787943631 30.56° C 63% 1016.2 hPa 0 mm - - -
1787943324 30.56° C 64% 1016.4 hPa 0 mm - - -
1787943042 30.56° C 63% 1016.4 hPa 0 mm - - -
1787942728 30.56° C 64% 1016.4 hPa 0 mm - - -
1787942434 30.56° C 64% 1016.4 hPa 0 mm - - -

* Rain latest hour (hover to see other rain measurements)
** Current wind speed in m/s (hover to see current wind gust speed)